Hlavní strana
METAR-TAF:

METAR-TAF

Letiště :

Walvis Bay, Namibie

zeměpisná šířka: 22-58-59S, zeměpisná délka: 014-39E, výška: 46 m

METAR: chybějící

Čas: 07:02 (05:02 UTC)

Předpověď počasí

Zpráva byla vytvořena před 7 hodinami a 2 minutami, v 22:00 UTC
Předpověď platná od 16 v 00 UTC do 17 v 00 UTC
Jihozápadní vítr 5 kt
Viditelnost 10 km a více
Žádná oblačnost pod 1500 m, nevyskytují se cumulonimby.
Změna
od 16 v 03 UTC do 16 v 05 UTC
Severoseverozápadní vítr 4 kt

TAF: FYWB 152200Z 1600/1700 22005KT CAVOK BECMG 1603/1605 34004KT

Stav a předpovědi počasí z více než 4 000 letišť (zprávy METAR a TAF).

Červené a žluté tečky na mapě představují dostupné meteorologické stanice.

Když kurzor umístíte na tečku, zobrazí se název stanice.

Pak kliknutím zobrazíte stav a předpověď počasí.

Chcete-li změnit mapu, kliknutím na zelené tlačítko se znaménkem +mapu přiblížíte, kliknutím na zelené tlačítko se znaménkem – mapu oddálíte a kliknutím na zelené šipky přejdete na sousední mapy.


METAR-TAF: